Port Heiden, AK

11:02 PM AKDT on September 24, 2017 (GMT -0800)
Port Heiden

Weather History for PAPH - October, 2013

Change the Weather History Date:

Wednesday, October 9, 2013

  Actual Average Record
Temperature  
Mean Temperature 44 °F -  
Max Temperature 48 °F 44 °F 68 °F (2012)
Min Temperature 41 °F 34 °F 21 °F (2007)
Degree Days  
Heating Degree Days 20    
Moisture  
Dew Point 35 °F    
Average Humidity 68    
Maximum Humidity 81    
Minimum Humidity 54    
Precipitation  
Precipitation 0.00 in - - ()
Sea Level Pressure  
Sea Level Pressure 29.83 in    
Wind  
Wind Speed 19 mph (SSW)    
Max Wind Speed 29 mph    
Max Gust Speed 37 mph    
Visibility 10 miles    
Events      
Averages and records for this station are not official NWS values.
T = Trace of Precipitation, MM = Missing Value Source: NWS Daily Summary

Daily Weather History Graph

Daily Weather History Graph

Search for Another Location

Airport or City:

Trip Planner

Search our weather history database for the weather conditions in past years. The results will help you decide how hot, cold, wet, or windy it might be!

Date:

Astronomy

Oct. 09, 2013 Rise Set
Actual Time 8:55 AM AKDT 7:46 PM AKDT
Civil Twilight 8:17 AM AKDT 8:24 PM AKDT
Nautical Twilight 7:33 AM AKDT 9:08 PM AKDT
Astronomical Twilight 6:48 AM AKDT 9:53 PM AKDT
Moon 2:51 PM AKDT (10/9) 10:44 PM AKDT (10/9)
Length of Visible Light 12h 06m
Length of Day
10h 50m
Waxing Crescent, 27% of the Moon is Illuminated
Oct 9
Waxing Crescent
Oct 11
First Quarter
Oct 18
Full
Oct 26
Last Quarter
Nov 3
New

Hourly Weather History & Observations

Time (AKDT) Temp. Windchill Dew Point Humidity Pressure Visibility Wind Dir Wind Speed Gust Speed Precip Events Conditions
12:16 AM 42.8 °F 32.9 °F 32.0 °F 66% 29.79 in 10.0 mi West 26.5 mph 33.4 mph N/A   Overcast
12:36 AM 44.6 °F 35.7 °F 30.2 °F 57% 29.80 in 10.0 mi West 24.2 mph 36.8 mph N/A   Overcast
12:56 AM 44.6 °F 34.9 °F 30.2 °F 57% 29.81 in 10.0 mi West 28.8 mph 34.5 mph N/A   Overcast
1:16 AM 42.8 °F 32.5 °F 30.2 °F 61% 29.82 in 10.0 mi West 28.8 mph 33.4 mph N/A   Mostly Cloudy
1:36 AM 44.6 °F 34.9 °F 32.0 °F 61% 29.83 in 10.0 mi West 28.8 mph 35.7 mph N/A   Mostly Cloudy
1:56 AM 42.8 °F 33.5 °F 32.0 °F 66% 29.84 in 10.0 mi West 23.0 mph 32.2 mph N/A   Mostly Cloudy
2:16 AM 42.8 °F 33.1 °F 32.0 °F 66% 29.84 in 10.0 mi West 25.3 mph 34.5 mph N/A   Overcast
2:36 AM 44.6 °F 36.1 °F 33.8 °F 66% 29.85 in 10.0 mi West 21.9 mph 33.4 mph N/A   Overcast
2:56 AM 44.6 °F 35.7 °F 33.8 °F 66% 29.85 in 10.0 mi West 24.2 mph 33.4 mph N/A   Overcast
3:16 AM 44.6 °F 35.9 °F 33.8 °F 66% 29.86 in 10.0 mi West 23.0 mph 31.1 mph N/A   Overcast
3:36 AM 44.6 °F 36.1 °F 33.8 °F 66% 29.87 in 10.0 mi West 21.9 mph 27.6 mph N/A   Overcast
3:56 AM 44.6 °F 35.7 °F 33.8 °F 66% 29.88 in 10.0 mi West 24.2 mph 29.9 mph N/A   Overcast
4:16 AM 44.6 °F 35.7 °F 33.8 °F 66% 29.88 in 10.0 mi West 24.2 mph 32.2 mph N/A   Overcast
4:36 AM 44.6 °F 36.1 °F 33.8 °F 66% 29.89 in 10.0 mi West 21.9 mph 28.8 mph N/A   Overcast
4:56 AM 44.6 °F 36.1 °F 33.8 °F 66% 29.90 in 10.0 mi West 21.9 mph 28.8 mph N/A   Overcast
5:16 AM 44.6 °F 36.1 °F 33.8 °F 66% 29.90 in 10.0 mi West 21.9 mph 32.2 mph N/A   Overcast
5:36 AM 44.6 °F 36.9 °F 33.8 °F 66% 29.90 in 10.0 mi West 18.4 mph 25.3 mph N/A   Overcast
5:56 AM 44.6 °F 36.4 °F 33.8 °F 66% 29.91 in 9.0 mi West 20.7 mph 27.6 mph N/A   Mostly Cloudy
6:16 AM 44.6 °F 37.2 °F 35.6 °F 71% 29.91 in 9.0 mi West 17.3 mph 26.5 mph N/A   Overcast
6:36 AM 44.6 °F 36.9 °F 35.6 °F 71% 29.91 in 10.0 mi West 18.4 mph 25.3 mph N/A   Overcast
6:56 AM 44.6 °F 37.2 °F 35.6 °F 71% 29.91 in 10.0 mi West 17.3 mph 25.3 mph N/A   Mostly Cloudy
7:16 AM 44.6 °F 36.9 °F 33.8 °F 66% 29.92 in 10.0 mi West 18.4 mph 21.9 mph N/A   Mostly Cloudy
7:36 AM 44.6 °F 37.8 °F 33.8 °F 66% 29.92 in 10.0 mi WSW 15.0 mph 21.9 mph N/A   Overcast
7:56 AM 44.6 °F 37.2 °F 35.6 °F 71% 29.92 in 10.0 mi WSW 17.3 mph 21.9 mph N/A   Overcast
8:16 AM 44.6 °F 38.1 °F 35.6 °F 71% 29.92 in 10.0 mi WSW 13.8 mph - N/A   Overcast
8:36 AM 42.8 °F 35.1 °F 35.6 °F 76% 29.92 in 8.0 mi SW 16.1 mph 19.6 mph N/A   Overcast
8:56 AM 42.8 °F 34.8 °F 37.4 °F 81% 29.92 in 5.0 mi SW 17.3 mph - N/A   Mostly Cloudy
9:16 AM 42.8 °F 35.8 °F 37.4 °F 81% 29.92 in 9.0 mi SW 13.8 mph 20.7 mph N/A   Overcast
9:36 AM 44.6 °F 37.2 °F 35.6 °F 71% 29.93 in 9.0 mi West 17.3 mph 21.9 mph N/A   Mostly Cloudy
9:56 AM 44.6 °F 37.4 °F 35.6 °F 71% 29.93 in 7.0 mi WSW 16.1 mph - N/A   Mostly Cloudy
10:16 AM 44.6 °F 39.2 °F 35.6 °F 71% 29.93 in 10.0 mi WSW 10.4 mph - N/A   Overcast
10:36 AM 42.8 °F 35.4 °F 35.6 °F 76% 29.93 in 4.0 mi SSW 15.0 mph - N/A   Overcast
10:56 AM 42.8 °F 34.8 °F 37.4 °F 81% 29.92 in 5.0 mi SW 17.3 mph 20.7 mph N/A   Overcast
11:16 AM 42.8 °F 35.8 °F 37.4 °F 81% 29.92 in 10.0 mi SW 13.8 mph - N/A   Mostly Cloudy
11:36 AM 44.6 °F 38.1 °F 37.4 °F 76% 29.92 in 10.0 mi SSW 13.8 mph 18.4 mph N/A   Overcast
11:56 AM 44.6 °F 37.4 °F 37.4 °F 76% 29.92 in 10.0 mi SW 16.1 mph - N/A   Overcast
12:16 PM 44.6 °F 37.2 °F 35.6 °F 71% 29.92 in 10.0 mi SW 17.3 mph 21.9 mph N/A   Overcast
12:36 PM 44.6 °F 37.4 °F 37.4 °F 76% 29.92 in 10.0 mi SW 16.1 mph 23.0 mph N/A   Mostly Cloudy
12:56 PM 44.6 °F 38.1 °F 35.6 °F 71% 29.91 in 10.0 mi SW 13.8 mph - N/A   Overcast
1:16 PM 44.6 °F 38.8 °F 37.4 °F 76% 29.90 in 10.0 mi SW 11.5 mph - N/A   Overcast
1:36 PM 44.6 °F 40.2 °F 35.6 °F 71% 29.90 in 10.0 mi SSW 8.1 mph - N/A   Overcast
1:56 PM 44.6 °F 40.7 °F 35.6 °F 71% 29.89 in 10.0 mi South 6.9 mph - N/A   Overcast
2:16 PM 44.6 °F 40.7 °F 35.6 °F 71% 29.88 in 10.0 mi SSE 6.9 mph - N/A   Overcast
2:36 PM 44.6 °F 39.7 °F 37.4 °F 76% 29.87 in 10.0 mi SE 9.2 mph - N/A   Overcast
2:56 PM 44.6 °F 39.2 °F 35.6 °F 71% 29.85 in 10.0 mi SSE 10.4 mph - N/A   Overcast
3:16 PM 46.4 °F 41.1 °F 37.4 °F 71% 29.85 in 10.0 mi SSE 11.5 mph - N/A   Overcast
3:36 PM 46.4 °F 41.5 °F 35.6 °F 66% 29.84 in 10.0 mi SSE 10.4 mph - N/A   Overcast
3:56 PM 46.4 °F 41.5 °F 35.6 °F 66% 29.83 in 10.0 mi South 10.4 mph - N/A   Overcast
4:16 PM 46.4 °F 41.9 °F 35.6 °F 66% 29.83 in 10.0 mi South 9.2 mph - N/A   Overcast
4:36 PM 48.2 °F - 35.6 °F 62% 29.82 in 10.0 mi SSE 11.5 mph - N/A   Mostly Cloudy
4:56 PM 48.2 °F - 35.6 °F 62% 29.81 in 10.0 mi SSE 11.5 mph - N/A   Mostly Cloudy
5:16 PM 46.4 °F 41.1 °F 35.6 °F 66% 29.81 in 10.0 mi SSE 11.5 mph - N/A   Mostly Cloudy
5:36 PM 46.4 °F 40.7 °F 35.6 °F 66% 29.80 in 10.0 mi SSE 12.7 mph - N/A   Partly Cloudy
5:56 PM 46.4 °F 41.5 °F 35.6 °F 66% 29.79 in 10.0 mi SSE 10.4 mph - N/A   Scattered Clouds
6:16 PM 46.4 °F 41.1 °F 35.6 °F 66% 29.78 in 10.0 mi SSE 11.5 mph - N/A   Mostly Cloudy
6:36 PM 46.4 °F 41.9 °F 35.6 °F 66% 29.77 in 10.0 mi SE 9.2 mph - N/A   Overcast
6:56 PM 46.4 °F 40.4 °F 35.6 °F 66% 29.76 in 10.0 mi SSE 13.8 mph - N/A   Overcast
7:16 PM 46.4 °F 41.1 °F 35.6 °F 66% 29.75 in 10.0 mi SSE 11.5 mph - N/A   Overcast
7:36 PM 46.4 °F 40.4 °F 35.6 °F 66% 29.74 in 10.0 mi SSE 13.8 mph - N/A   Overcast
7:56 PM 46.4 °F 40.7 °F 35.6 °F 66% 29.74 in 10.0 mi SSE 12.7 mph - N/A   Partly Cloudy
8:16 PM 46.4 °F 40.7 °F 35.6 °F 66% 29.72 in 10.0 mi SSE 12.7 mph - N/A   Clear
8:36 PM 46.4 °F 40.7 °F 35.6 °F 66% 29.72 in 10.0 mi SSE 12.7 mph - N/A   Mostly Cloudy
8:56 PM 46.4 °F 39.8 °F 35.6 °F 66% 29.71 in 10.0 mi SSE 16.1 mph - N/A   Overcast
9:16 PM 46.4 °F 39.8 °F 35.6 °F 66% 29.70 in 10.0 mi SSE 16.1 mph - N/A   Mostly Cloudy
9:36 PM 46.4 °F 39.5 °F 35.6 °F 66% 29.68 in 10.0 mi SE 17.3 mph 20.7 mph N/A   Mostly Cloudy
9:56 PM 46.4 °F 39.5 °F 35.6 °F 66% 29.68 in 10.0 mi SSE 17.3 mph - N/A   Scattered Clouds
10:16 PM 46.4 °F 39.8 °F 35.6 °F 66% 29.67 in 10.0 mi SSE 16.1 mph - N/A   Mostly Cloudy
10:36 PM 46.4 °F 39.8 °F 35.6 °F 66% 29.67 in 10.0 mi SSE 16.1 mph - N/A   Mostly Cloudy
10:56 PM 46.4 °F 39.5 °F 35.6 °F 66% 29.65 in 10.0 mi SSE 17.3 mph - N/A   Mostly Cloudy
11:16 PM 48.2 °F - 35.6 °F 62% 29.65 in 10.0 mi SSE 16.1 mph - N/A   Mostly Cloudy
11:36 PM 48.2 °F - 37.4 °F 66% 29.64 in 10.0 mi SSE 16.1 mph - N/A   Overcast
11:56 PM 48.2 °F - 37.4 °F 66% 29.64 in 10.0 mi SSE 18.4 mph - N/A   Overcast